Aérodrome :
LOGIN :

S'inscrire | Disclaimer

   EN    FR    IT 

 










Légende :    VFR   VFR Marginal   IFR   IFR Intensif   IFR Très Intensif
Visi : 
Plafond : 
>= 8 km
>= 3000ft
5 à 8 km
1000 à 3000 ft
1500m à 5 km
500 à 1000 ft
800 à 1500m
200 à 500 ft
< 800m
< 200 ft
Symboles :   Orages  Brouillard  Fortes neiges  Fortes précipitations  Vent > 20 kt
SIGMETs :   Divers  Orages  Givrage  Turbulence  Onde Orograph.  Cendres Volcan.






- Altitude de l'aérodrome : 33 ft
- Code IATA : MHZ


EGUN - RAF Mildenhall

DERNIER METAR :
  • 230155Z 23004KT 9999 BKN027 BKN045 19/14 A2992 RMK AO2A SLP135 T01850142

METARs EXPIRÉS :
  • 230055Z 27004KT 9999 BKN026 19/14 A2993 RMK AO2A SLP138 T01850140
  • 230015Z 26006KT 9999 BKN028 19/14 A2993 RMK AO2A SLP138
  • 222355Z 25007KT 9999 BKN030 BKN048 19/14 A2993 RMK AO2A SLP138 T01920138 10231 20184 402620129 50003
  • 222345Z 25007KT 9999 BKN030 BKN048 19/14 A2993 RMK AO2A SLP138
  • 222325Z 25006KT 9999 BKN029 OVC048 19/14 A2993 RMK AO2A SLP138
  • 222255Z 24004KT 9999 BKN035 19/14 A2993 RMK AO2A SLP138 T01920140
  • 222225Z 22004KT 9999 BKN037 OVC060 20/14 A2993 RMK AO2A SLP138
  • 222155Z 21006KT 9999 BKN060 18/14 A2993 RMK AO2A SLP138 T01840135

TAF TAF EGUN
Valide du 22 à 20h jusqu'au 24 à 02h UTC


222000Z 2220/2402 27009KT 9999 FEW020 SCT045 SCT070 QNH2991INS
BECMG 2222/2224 27006KT 9999 SCT018 BKN030 BKN060 QNH2993INS
BECMG 2302/2304 30008KT 9999 BKN018 OVC025 QNH2993INS
TEMPO 2304/2308 6000 -RA BR SCT007 OVC012 600903
BECMG 2309/2310 33012G18KT 9999 FEW025 SCT035 BKN050 QNH3001INS
BECMG 2315/2316 01010KT 9999 VCSH BKN030 BKN200 QNH3009INS
BECMG 2317/2318 04006KT 9999 NSW FEW030 SCT070 BKN250 QNH3012INS
BECMG 2400/2402 12003KT 4000 BR SCT015 BKN050 QNH3016INS TX25/2314Z TN14/2303Z



MET'MAP, la Météo Aéronautique d'un coup d'oeil ! - Copyright ORBIFLY Décembre 2007 - Disclaimer

ORBIFLY MET'MAP TEAM :

Programmation & Développement : Alexandra Zaïnal
Sur une idée originale de : Baudouin d'Aumeries
Soutien technique & logistique : Manuel Goepfert
Assistance : Marc-Olivier Méhu




SOURCES & CREDITS :

   NOAA